x

Isle Of Shoals, Nh (iosn3) Weather Station

11:00 - Mon 16th Jan 2017 All times are EST. -5 hours from GMT.

  • Wind
    23mph, 25mph gusts
  • Luft Temp 31°f
  • Sea Pressure 1027.7mb
  • Isle Of Shoals, Nh
  • Isle Of Shoals, Nh

More Historic Weather Station data

Upgrade to MSW Pro to gain access to the past 30 days of data for over 8000 Wavebouys and Weather Stations around the globe.

Join Pro

Comparision Forecast

View Surf forecast
   
Mo 01/16 11:00 23 25 mph 1027.7mb 31f
10:00 17 20 mph 1029.2mb 30f
9:00 13 14 mph 1029.5mb 29f
8:00 9 10 mph 1029.7mb 27f
7:00 10 13 mph 1030mb 26f
6:00 8 9 mph 1029.7mb 26f
5:00 10
mph
1030mb 27f
4:00 9 10 mph 1030.1mb 27f
3:00 7 8 mph 1030mb 28f
2:00 7 8 mph 1030.2mb 28f
1:00 10 11 mph 1029.8mb 28f
12:00 8 9 mph 1029.3mb 29f
So 01/15 11:00 5 7 mph 1029.2mb 30f
10:00 10 13 mph 1029.1mb 30f
9:00 13 15 mph 1029mb 30f
8:00 21 23 mph 1028.1mb 30f
7:00 22 25 mph 1027.7mb 30f
6:00 18 21 mph 1027.3mb 32f
5:00 21 23 mph 1026.2mb 32f
4:00 21 23 mph 1025.7mb 33f
3:00 21 24 mph 1024.9mb 33f
2:00 20 21 mph 1024.3mb 33f
1:00 22 25 mph 1024mb 32f
12:00 16 20 mph 1024.7mb 31f
11:00 22 26 mph 1024.7mb 30f
10:00 21 24 mph 1024.9mb 29f
9:00 25 29 mph 1024.4mb 28f
8:00 25 28 mph 1023.4mb 29f
7:00 21 24 mph 1022.9mb 28f
6:00 16 18 mph 1022.7mb 28f
5:00 18 20 mph 1022.4mb 28f
4:00 20 23 mph 1022.2mb 29f
3:00 17 20 mph 1022.6mb 30f
2:00 21 24 mph 1022.8mb 30f
1:00 20 21 mph 1023.1mb 30f
12:00 21 23 mph 1023.7mb 31f
Sa 01/14 11:00 22 24 mph 1024.8mb 31f
10:00 24 26 mph 1025.8mb 30f
9:00 25 30 mph 1026.3mb 31f
8:00 25 29 mph 1027.1mb 31f
7:00 20 22 mph 1027.8mb 30f
6:00 14 18 mph 1029.4mb 29f
5:00 9 11 mph 1030.4mb 28f
4:00 9 14 mph 1031.2mb 27f
3:00 8 10 mph 1032.1mb 26f
2:00 6
mph
1033.5mb 25f
1:00 2 3 mph 1034.2mb 23f
12:00 7 8 mph 1035.7mb 20f
11:00 7 11 mph 1037.8mb 19f
10:00 7 8 mph 1038.6mb 17f
9:00 10 11 mph 1039.5mb 17f
8:00 10 13 mph 1039.4mb 17f
7:00 10 14 mph 1039.4mb 17f
6:00 13 15 mph 1039mb 17f
5:00 14 17 mph 1039.2mb 18f
4:00 18 22 mph 1038.8mb 19f
3:00 17 20 mph 1039.1mb 20f
2:00 26 31 mph 1038.4mb 20f
1:00 22 25 mph 1038.1mb 21f
12:00 24 30 mph 1037.7mb 22f
Fr 01/13 11:00 30 34 mph 1037.1mb 24f
10:00 22 25 mph 1037.2mb 25f
9:00 40 44 mph 1035.5mb 27f
8:00 29 32 mph 1035.1mb 29f
7:00 25 28 mph 1033.9mb 31f
6:00 28 32 mph 1032.4mb 33f
5:00 25 29 mph 1030.8mb 36f
4:00 25 29 mph 1029.2mb 38f
3:00 30 34 mph 1027.1mb 39f
2:00 30 32 mph 1026mb 39f
1:00 30 33 mph 1024.6mb 41f
12:00 28 30 mph 1023.6mb 42f
11:00 25 31 mph 1023.6mb 42f
10:00 25 28 mph 1023.3mb 42f
9:00 26 30 mph 1022.3mb 42f
8:00 29 33 mph 1021.2mb 44f
7:00 23 25 mph 1020.2mb 45f
6:00 28 30 mph 1018.2mb 47f
5:00 25 28 mph 1016.9mb 50f
4:00 23 26 mph 1015.6mb 53f
3:00 21 23 mph 1014.8mb 55f
2:00 22 24 mph 1014.4mb 57f
1:00 20
mph
1013.7mb 55f
12:00 18 20 mph 1012.8mb 54f
Do 01/12 11:00 22 23 mph 1012.2mb 54f
10:00 24 25 mph 1011.6mb 52f
9:00 32 33 mph 1011.1mb 50f
8:00 31 32 mph 1011.3mb 52f
7:00 26 28 mph 1012.6mb 54f
6:00 24 25 mph 1012.4mb 56f